San Valentino — IQXH — position and weather

sailwx.info

Track history (hours):
 
Tides and Currents Weather Stations Pressure Air Temp Water Temp Dewpoint Dewpoint Depression Visibility Wind Speed Wind Dir Waves Ship Positions

San Valentino

Last reported at 2017-Jul-20 15:37 UTC. Time now 2017-Jul-20 22:25 UTC.
Position N 40°38' E 014°23'.

Length 32 m; draft 2 m.

Type: Ship. MMSI: 247065100.

Date/timePositionNaut miles runAvg speedWind from/ knotsBaromVisibWave heightAir tempDewpointWater temp
2017-Jul-20 15:37N 40°38' E 014°23'0 0.6
2017-Jul-20 15:30N 40°38' E 014°23'5 3.1
2017-Jul-20 13:56N 40°37' E 014°29'4 1.5
2017-Jul-20 11:17N 40°37' E 014°34'4 9.2
2017-Jul-20 10:51N 40°37' E 014°29'1 4.0
2017-Jul-20 10:28N 40°37' E 014°28'5 9.5
2017-Jul-20 09:57N 40°35' E 014°22'5 9.4
2017-Jul-20 09:27N 40°33' E 014°16'1 1.1
2017-Jul-20 08:56N 40°33' E 014°16'4 9.8
2017-Jul-20 08:30N 40°37' E 014°19'3 5.9
2017-Jul-20 08:00N 40°38' E 014°23'0 0.0
2017-Jul-19 15:36N 40°38' E 014°23'0 0.9
2017-Jul-19 15:31N 40°38' E 014°23'7 1.5
2017-Jul-19 11:08N 40°36' E 014°31'1 9.5
2017-Jul-19 10:58N 40°37' E 014°29'2 4.2
2017-Jul-19 10:30N 40°37' E 014°27'5 9.6
2017-Jul-19 09:57N 40°34' E 014°21'4 9.1
2017-Jul-19 09:29N 40°32' E 014°16'1 1.2
2017-Jul-19 08:59N 40°33' E 014°16'4 9.1
2017-Jul-19 08:30N 40°37' E 014°19'3 6.1
2017-Jul-19 08:00N 40°38' E 014°23'0 0.0
2017-Jul-18 15:30N 40°38' E 014°23'4 0.9
2017-Jul-18 10:27N 40°37' E 014°28'8 4.1
2017-Jul-18 08:35N 40°36' E 014°18'1 9.5
2017-Jul-18 08:30N 40°37' E 014°19'3 6.2
2017-Jul-18 08:00N 40°38' E 014°23'  
2017-Jul-15 15:40N 40°38' E 014°23'0 1.3
2017-Jul-15 15:30N 40°38' E 014°22'3 3.5
2017-Jul-15 14:35N 40°35' E 014°22'3 0.5
2017-Jul-15 08:30N 40°37' E 014°19'3 5.7
2017-Jul-15 08:01N 40°38' E 014°23'0 0.0
2017-Jul-14 15:27N 40°38' E 014°23'3 6.7
2017-Jul-14 14:59N 40°37' E 014°19'2 0.3
2017-Jul-14 08:17N 40°38' E 014°21'1 4.8
2017-Jul-14 08:00N 40°38' E 014°23'0 0.0
2017-Jul-13 15:38N 40°38' E 014°23'0 2.6
2017-Jul-13 15:30N 40°38' E 014°22'2 0.2
2017-Jul-13 08:19N 40°38' E 014°20'2 5.4
2017-Jul-13 08:00N 40°38' E 014°23'0 0.0
2017-Jul-13 07:29N 40°38' E 014°23'0 0.0
2017-Jul-13 07:00N 40°38' E 014°23'0 0.0
2017-Jul-13 06:29N 40°38' E 014°23'0 0.0
2017-Jul-12 15:40N 40°38' E 014°23'0 1.8
2017-Jul-12 15:30N 40°38' E 014°22'3 3.8
2017-Jul-12 14:37N 40°35' E 014°22'5 1.2
2017-Jul-12 10:28N 40°37' E 014°28'7 3.9
2017-Jul-12 08:35N 40°36' E 014°18'1 9.8
2017-Jul-12 08:29N 40°37' E 014°19'3 6.1
2017-Jul-12 08:00N 40°38' E 014°23'0 0.0
2017-Jul-11 15:29N 40°38' E 014°23'4 0.8
2017-Jul-11 10:32N 40°37' E 014°28'1 9.7
2017-Jul-11 10:28N 40°37' E 014°27'6 3.4
2017-Jul-11 08:34N 40°36' E 014°19'1 9.8
2017-Jul-11 08:30N 40°37' E 014°19'3 5.8
2017-Jul-11 08:00N 40°38' E 014°23'0 0.0
2017-Jul-11 07:30N 40°38' E 014°23'0 0.0
2017-Jul-11 06:44N 40°38' E 014°23'0 0.0
2017-Jul-11 06:30N 40°38' E 014°23'0 0.0
2017-Jul-11 06:16N 40°38' E 014°23'  
Track history (hours):
 
Tides and Currents Weather Stations Pressure Air Temp Water Temp Dewpoint Dewpoint Depression Visibility Wind Speed Wind Dir Waves Ship Positions

San Valentino

Last reported at 2017-Jul-20 15:37 UTC. Time now 2017-Jul-20 22:25 UTC.
Position N 40°38' E 014°23'.

Length 32 m; draft 2 m.

Type: Ship. MMSI: 247065100.

Date/timePositionNaut miles runAvg speedWind from/ knotsBaromVisibWave heightAir tempDewpointWater temp
2017-Jul-20 15:37N 40°38' E 014°23'0 0.6
2017-Jul-20 15:30N 40°38' E 014°23'5 3.1
2017-Jul-20 13:56N 40°37' E 014°29'4 1.5
2017-Jul-20 11:17N 40°37' E 014°34'4 9.2
2017-Jul-20 10:51N 40°37' E 014°29'1 4.0
2017-Jul-20 10:28N 40°37' E 014°28'5 9.5
2017-Jul-20 09:57N 40°35' E 014°22'5 9.4
2017-Jul-20 09:27N 40°33' E 014°16'1 1.1
2017-Jul-20 08:56N 40°33' E 014°16'4 9.8
2017-Jul-20 08:30N 40°37' E 014°19'3 5.9
2017-Jul-20 08:00N 40°38' E 014°23'0 0.0
2017-Jul-19 15:36N 40°38' E 014°23'0 0.9
2017-Jul-19 15:31N 40°38' E 014°23'7 1.5
2017-Jul-19 11:08N 40°36' E 014°31'1 9.5
2017-Jul-19 10:58N 40°37' E 014°29'2 4.2
2017-Jul-19 10:30N 40°37' E 014°27'5 9.6
2017-Jul-19 09:57N 40°34' E 014°21'4 9.1
2017-Jul-19 09:29N 40°32' E 014°16'1 1.2
2017-Jul-19 08:59N 40°33' E 014°16'4 9.1
2017-Jul-19 08:30N 40°37' E 014°19'3 6.1
2017-Jul-19 08:00N 40°38' E 014°23'0 0.0
2017-Jul-18 15:30N 40°38' E 014°23'4 0.9
2017-Jul-18 10:27N 40°37' E 014°28'8 4.1
2017-Jul-18 08:35N 40°36' E 014°18'1 9.5
2017-Jul-18 08:30N 40°37' E 014°19'3 6.2
2017-Jul-18 08:00N 40°38' E 014°23'  
2017-Jul-15 15:40N 40°38' E 014°23'0 1.3
2017-Jul-15 15:30N 40°38' E 014°22'3 3.5
2017-Jul-15 14:35N 40°35' E 014°22'3 0.5
2017-Jul-15 08:30N 40°37' E 014°19'3 5.7
2017-Jul-15 08:01N 40°38' E 014°23'0 0.0
2017-Jul-14 15:27N 40°38' E 014°23'3 6.7
2017-Jul-14 14:59N 40°37' E 014°19'2 0.3
2017-Jul-14 08:17N 40°38' E 014°21'1 4.8
2017-Jul-14 08:00N 40°38' E 014°23'0 0.0
2017-Jul-13 15:38N 40°38' E 014°23'0 2.6
2017-Jul-13 15:30N 40°38' E 014°22'2 0.2
2017-Jul-13 08:19N 40°38' E 014°20'2 5.4
2017-Jul-13 08:00N 40°38' E 014°23'0 0.0
2017-Jul-13 07:29N 40°38' E 014°23'0 0.0
2017-Jul-13 07:00N 40°38' E 014°23'0 0.0
2017-Jul-13 06:29N 40°38' E 014°23'0 0.0
2017-Jul-12 15:40N 40°38' E 014°23'0 1.8
2017-Jul-12 15:30N 40°38' E 014°22'3 3.8
2017-Jul-12 14:37N 40°35' E 014°22'5 1.2
2017-Jul-12 10:28N 40°37' E 014°28'7 3.9
2017-Jul-12 08:35N 40°36' E 014°18'1 9.8
2017-Jul-12 08:29N 40°37' E 014°19'3 6.1
2017-Jul-12 08:00N 40°38' E 014°23'0 0.0
2017-Jul-11 15:29N 40°38' E 014°23'4 0.8
2017-Jul-11 10:32N 40°37' E 014°28'1 9.7
2017-Jul-11 10:28N 40°37' E 014°27'6 3.4
2017-Jul-11 08:34N 40°36' E 014°19'1 9.8
2017-Jul-11 08:30N 40°37' E 014°19'3 5.8
2017-Jul-11 08:00N 40°38' E 014°23'0 0.0
2017-Jul-11 07:30N 40°38' E 014°23'0 0.0
2017-Jul-11 06:44N 40°38' E 014°23'0 0.0
2017-Jul-11 06:30N 40°38' E 014°23'0 0.0
2017-Jul-11 06:16N 40°38' E 014°23'  

Dump ship's entire track history